RYR9DK LDZA-EBCI
Flight info
| Callsign | RYR9DK |
|---|---|
| Flight time | N/A |
| Altitude | 36000 |
| Route | PODET DCT BERTA DCT EVAXI DCT BIRGI DCT KPT L608 MISGI Z104 ODVUX/N0448F280 Z104 GESLO N852 LNO |
| Aircraft | A320/M-SDE3FGHIRWY/LB1 |
Departure
| Time | N/A |
|---|---|
| Airport | Zagreb Franjo Tuđman International Airport (LDZA) |
Arrival
| Time | 2026-04-27 18:31 |
|---|---|
| Airport | Brussels South Charleroi Airport (EBCI) |
| Time | Latitude | Longitude | Altitude | Speed | Heading |
|---|---|---|---|---|---|
| 2026-04-27 17:31 | 47.68178 | 10.61078 | 36154 ft | 405 kts | 290° |
| 2026-04-27 17:32 | 47.71083 | 10.49282 | 36152 ft | 405 kts | 290° |
| 2026-04-27 17:33 | 47.73012 | 10.41410 | 36146 ft | 405 kts | 290° |
| 2026-04-27 17:33 | 47.75744 | 10.34191 | 36146 ft | 406 kts | 308° |
| 2026-04-27 17:34 | 47.79919 | 10.28505 | 36153 ft | 409 kts | 318° |
| 2026-04-27 17:34 | 47.84323 | 10.23145 | 36154 ft | 409 kts | 317° |
| 2026-04-27 17:35 | 47.88723 | 10.17766 | 36148 ft | 409 kts | 317° |
| 2026-04-27 17:35 | 47.93121 | 10.12375 | 36145 ft | 409 kts | 317° |
| 2026-04-27 17:36 | 47.97521 | 10.06975 | 36143 ft | 410 kts | 317° |
| 2026-04-27 17:36 | 48.01923 | 10.01561 | 36160 ft | 410 kts | 317° |
| 2026-04-27 17:37 | 48.06323 | 9.96140 | 36157 ft | 410 kts | 317° |
| 2026-04-27 17:37 | 48.10714 | 9.90710 | 36156 ft | 409 kts | 317° |
| 2026-04-27 17:38 | 48.15101 | 9.85275 | 36150 ft | 409 kts | 317° |
| 2026-04-27 17:38 | 48.19488 | 9.79840 | 36147 ft | 410 kts | 317° |
| 2026-04-27 17:39 | 48.23139 | 9.75301 | 36144 ft | 410 kts | 317° |
| 2026-04-27 17:39 | 48.27520 | 9.69836 | 36160 ft | 410 kts | 317° |
| 2026-04-27 17:40 | 48.31905 | 9.64339 | 36154 ft | 410 kts | 317° |
| 2026-04-27 17:40 | 48.36270 | 9.58845 | 36153 ft | 409 kts | 316° |
| 2026-04-27 17:41 | 48.40611 | 9.53303 | 36148 ft | 409 kts | 316° |
| 2026-04-27 17:41 | 48.44917 | 9.47773 | 36144 ft | 409 kts | 316° |
| 2026-04-27 17:42 | 48.49247 | 9.42200 | 36142 ft | 410 kts | 316° |
| 2026-04-27 17:42 | 48.53588 | 9.36608 | 36146 ft | 410 kts | 316° |
| 2026-04-27 17:43 | 48.57911 | 9.31016 | 36148 ft | 410 kts | 316° |
| 2026-04-27 17:43 | 48.62423 | 9.25726 | 36148 ft | 414 kts | 326° |
| 2026-04-27 17:44 | 48.67698 | 9.22063 | 36146 ft | 419 kts | 332° |
| 2026-04-27 17:44 | 48.73041 | 9.18539 | 36163 ft | 419 kts | 332° |
| 2026-04-27 17:45 | 48.78374 | 9.15002 | 36156 ft | 419 kts | 331° |
| 2026-04-27 17:45 | 48.83721 | 9.11443 | 36151 ft | 419 kts | 331° |
| 2026-04-27 17:46 | 48.89061 | 9.07885 | 36150 ft | 419 kts | 331° |
| 2026-04-27 17:46 | 48.94377 | 9.04241 | 36156 ft | 419 kts | 330° |
| 2026-04-27 17:47 | 48.99669 | 9.00533 | 36168 ft | 419 kts | 330° |
| 2026-04-27 17:47 | 49.04963 | 8.96835 | 36159 ft | 419 kts | 330° |
| 2026-04-27 17:48 | 49.10263 | 8.93145 | 36160 ft | 418 kts | 330° |
| 2026-04-27 17:48 | 49.15557 | 8.89443 | 36162 ft | 418 kts | 330° |
| 2026-04-27 17:49 | 49.20900 | 8.85899 | 36166 ft | 423 kts | 336° |
| 2026-04-27 17:49 | 49.26526 | 8.83169 | 36156 ft | 424 kts | 336° |
| 2026-04-27 17:50 | 49.32163 | 8.80448 | 36153 ft | 424 kts | 336° |
| 2026-04-27 17:50 | 49.40602 | 8.76315 | 36151 ft | 424 kts | 336° |
| 2026-04-27 17:51 | 49.46230 | 8.73545 | 36169 ft | 425 kts | 336° |
| 2026-04-27 17:51 | 49.51858 | 8.70778 | 36161 ft | 425 kts | 336° |
| 2026-04-27 17:52 | 49.57496 | 8.67999 | 36160 ft | 425 kts | 336° |
| 2026-04-27 17:52 | 49.63124 | 8.65208 | 36159 ft | 425 kts | 336° |
| 2026-04-27 17:53 | 49.68753 | 8.62386 | 36177 ft | 423 kts | 333° |
| 2026-04-27 17:53 | 49.73766 | 8.57994 | 36169 ft | 410 kts | 316° |
| 2026-04-27 17:54 | 49.77917 | 8.52068 | 36169 ft | 408 kts | 313° |
| 2026-04-27 17:54 | 49.82047 | 8.46035 | 36170 ft | 408 kts | 311° |
| 2026-04-27 17:55 | 49.85345 | 8.38978 | 36170 ft | 400 kts | 293° |
| 2026-04-27 17:55 | 49.87223 | 8.30894 | 36165 ft | 398 kts | 287° |
| 2026-04-27 17:56 | 49.88935 | 8.22785 | 36164 ft | 399 kts | 287° |
| 2026-04-27 17:56 | 49.90647 | 8.14595 | 36167 ft | 399 kts | 287° |
| 2026-04-27 17:57 | 49.92351 | 8.06413 | 36192 ft | 400 kts | 286° |
| 2026-04-27 17:57 | 49.94058 | 7.98188 | 36186 ft | 400 kts | 286° |
| 2026-04-27 17:58 | 49.95717 | 7.89952 | 36182 ft | 400 kts | 285° |
| 2026-04-27 17:58 | 49.97267 | 7.81663 | 36179 ft | 400 kts | 284° |
| 2026-04-27 17:59 | 49.98792 | 7.73343 | 36183 ft | 400 kts | 284° |
| 2026-04-27 17:59 | 50.00434 | 7.65076 | 36179 ft | 400 kts | 286° |
| 2026-04-27 18:00 | 50.02168 | 7.56847 | 36180 ft | 401 kts | 286° |
| 2026-04-27 18:00 | 50.03882 | 7.48610 | 36181 ft | 400 kts | 286° |
| 2026-04-27 18:01 | 50.05566 | 7.40344 | 36183 ft | 400 kts | 286° |
| 2026-04-27 18:01 | 50.07224 | 7.32087 | 36184 ft | 400 kts | 285° |
| 2026-04-27 18:02 | 50.08051 | 7.23583 | 36179 ft | 398 kts | 274° |
| 2026-04-27 18:02 | 50.08417 | 7.14967 | 36177 ft | 399 kts | 274° |
| 2026-04-27 18:03 | 50.08776 | 7.06400 | 36180 ft | 399 kts | 273° |
| 2026-04-27 18:03 | 50.09130 | 6.97775 | 36181 ft | 400 kts | 273° |
| 2026-04-27 18:04 | 50.09482 | 6.89121 | 36181 ft | 400 kts | 273° |
| 2026-04-27 18:04 | 50.09381 | 6.80470 | 36167 ft | 400 kts | 268° |
| 2026-04-27 18:05 | 50.09200 | 6.71815 | 36163 ft | 400 kts | 268° |
| 2026-04-27 18:05 | 50.09025 | 6.63145 | 36163 ft | 400 kts | 268° |
| 2026-04-27 18:06 | 50.08842 | 6.54484 | 36165 ft | 400 kts | 268° |
| 2026-04-27 18:06 | 50.08647 | 6.45811 | 36166 ft | 400 kts | 268° |
| 2026-04-27 18:07 | 50.08451 | 6.37158 | 36163 ft | 401 kts | 268° |
| 2026-04-27 18:07 | 50.08241 | 6.28470 | 36162 ft | 401 kts | 268° |
| 2026-04-27 18:08 | 50.08026 | 6.19802 | 36163 ft | 401 kts | 268° |
| 2026-04-27 18:08 | 50.07825 | 6.11136 | 36161 ft | 401 kts | 270° |
| 2026-04-27 18:09 | 50.08203 | 6.06852 | 36161 ft | 402 kts | 285° |
| 2026-04-27 18:09 | 50.09360 | 6.02874 | 36159 ft | 406 kts | 300° |
| 2026-04-27 18:09 | 50.11234 | 5.99541 | 36153 ft | 414 kts | 316° |
| 2026-04-27 18:09 | 50.13711 | 5.97172 | 36145 ft | 425 kts | 332° |
| 2026-04-27 18:10 | 50.19284 | 5.93926 | 36139 ft | 429 kts | 334° |
| 2026-04-27 18:10 | 50.24899 | 5.90706 | 36143 ft | 430 kts | 334° |
| 2026-04-27 18:11 | 50.30530 | 5.87450 | 36177 ft | 431 kts | 334° |
| 2026-04-27 18:11 | 50.36163 | 5.84178 | 36171 ft | 432 kts | 333° |
| 2026-04-27 18:12 | 50.41792 | 5.80885 | 36175 ft | 432 kts | 333° |
| 2026-04-27 18:12 | 50.47441 | 5.77581 | 36174 ft | 432 kts | 333° |
| 2026-04-27 18:13 | 50.53075 | 5.74282 | 36206 ft | 432 kts | 333° |
| 2026-04-27 18:13 | 50.58330 | 5.70016 | 36196 ft | 420 kts | 317° |
| 2026-04-27 18:14 | 50.60493 | 5.67057 | 35957 ft | 414 kts | 309° |
| 2026-04-27 18:14 | 50.62380 | 5.63606 | 35714 ft | 409 kts | 304° |
| 2026-04-27 18:14 | 50.64149 | 5.60086 | 35476 ft | 409 kts | 304° |
| 2026-04-27 18:14 | 50.65923 | 5.56581 | 35233 ft | 410 kts | 304° |
| 2026-04-27 18:15 | 50.67706 | 5.53079 | 34994 ft | 410 kts | 304° |
| 2026-04-27 18:15 | 50.69470 | 5.49621 | 34711 ft | 409 kts | 303° |
| 2026-04-27 18:15 | 50.71279 | 5.46063 | 33836 ft | 412 kts | 303° |
| 2026-04-27 18:15 | 50.73048 | 5.42568 | 32946 ft | 413 kts | 303° |
| 2026-04-27 18:16 | 50.74843 | 5.39016 | 32050 ft | 414 kts | 303° |
| 2026-04-27 18:16 | 50.76641 | 5.35455 | 31212 ft | 415 kts | 302° |
| 2026-04-27 18:16 | 50.78449 | 5.31871 | 30225 ft | 418 kts | 302° |
| 2026-04-27 18:16 | 50.80261 | 5.28270 | 29104 ft | 420 kts | 302° |
| 2026-04-27 18:17 | 50.82071 | 5.24661 | 28401 ft | 415 kts | 303° |
| 2026-04-27 18:17 | 50.83852 | 5.21111 | 27829 ft | 407 kts | 303° |
| 2026-04-27 18:17 | 50.85520 | 5.17583 | 27214 ft | 397 kts | 297° |
| 2026-04-27 18:17 | 50.86793 | 5.13759 | 26595 ft | 388 kts | 289° |
| 2026-04-27 18:18 | 50.87626 | 5.09732 | 25969 ft | 382 kts | 281° |
| 2026-04-27 18:18 | 50.88031 | 5.05604 | 25361 ft | 377 kts | 273° |
| 2026-04-27 18:18 | 50.88213 | 5.01462 | 24756 ft | 375 kts | 273° |
| 2026-04-27 18:18 | 50.88193 | 4.97341 | 23897 ft | 380 kts | 261° |
| 2026-04-27 18:19 | 50.87374 | 4.93328 | 22796 ft | 389 kts | 244° |
| 2026-04-27 18:19 | 50.85752 | 4.89853 | 21681 ft | 399 kts | 230° |
| 2026-04-27 18:19 | 50.83838 | 4.86644 | 20598 ft | 404 kts | 229° |
| 2026-04-27 18:19 | 50.81908 | 4.83448 | 19899 ft | 399 kts | 229° |
| 2026-04-27 18:20 | 50.80615 | 4.81318 | 19450 ft | 396 kts | 229° |
| 2026-04-27 18:20 | 50.78098 | 4.77181 | 18586 ft | 391 kts | 229° |
| 2026-04-27 18:20 | 50.76224 | 4.74097 | 17903 ft | 387 kts | 228° |
| 2026-04-27 18:20 | 50.74965 | 4.72023 | 17457 ft | 384 kts | 229° |
| 2026-04-27 18:21 | 50.73131 | 4.68997 | 16819 ft | 381 kts | 229° |
| 2026-04-27 18:21 | 50.71305 | 4.65979 | 16200 ft | 378 kts | 229° |
| 2026-04-27 18:21 | 50.69491 | 4.62984 | 15544 ft | 376 kts | 229° |
| 2026-04-27 18:21 | 50.67698 | 4.60032 | 15221 ft | 365 kts | 228° |
| 2026-04-27 18:22 | 50.66012 | 4.57268 | 15081 ft | 336 kts | 228° |
| 2026-04-27 18:22 | 50.64452 | 4.54720 | 14937 ft | 310 kts | 229° |
| 2026-04-27 18:22 | 50.63006 | 4.52350 | 14501 ft | 298 kts | 229° |
| 2026-04-27 18:22 | 50.61566 | 4.49978 | 13858 ft | 294 kts | 229° |
| 2026-04-27 18:23 | 50.60155 | 4.47656 | 13125 ft | 292 kts | 229° |
| 2026-04-27 18:23 | 50.58755 | 4.45354 | 12410 ft | 290 kts | 228° |
| 2026-04-27 18:23 | 50.57360 | 4.43069 | 11729 ft | 289 kts | 228° |
| 2026-04-27 18:23 | 50.55974 | 4.40801 | 11043 ft | 287 kts | 227° |
| 2026-04-27 18:24 | 50.54589 | 4.38539 | 10397 ft | 285 kts | 227° |
| 2026-04-27 18:24 | 50.53229 | 4.36325 | 9738 ft | 283 kts | 227° |
| 2026-04-27 18:24 | 50.51865 | 4.34112 | 9073 ft | 281 kts | 227° |
| 2026-04-27 18:24 | 50.50509 | 4.31910 | 8391 ft | 279 kts | 227° |
| 2026-04-27 18:25 | 50.49165 | 4.29723 | 7707 ft | 279 kts | 227° |
| 2026-04-27 18:25 | 50.47889 | 4.27443 | 7129 ft | 274 kts | 237° |
| 2026-04-27 18:25 | 50.46986 | 4.24850 | 6615 ft | 267 kts | 248° |
| 2026-04-27 18:25 | 50.46245 | 4.22279 | 6390 ft | 251 kts | 246° |
| 2026-04-27 18:26 | 50.45286 | 4.20095 | 6095 ft | 240 kts | 220° |
| 2026-04-27 18:26 | 50.43832 | 4.18977 | 5786 ft | 231 kts | 189° |
| 2026-04-27 18:26 | 50.42268 | 4.19116 | 5481 ft | 222 kts | 160° |
| 2026-04-27 18:26 | 50.40937 | 4.20281 | 5224 ft | 218 kts | 135° |
| 2026-04-27 18:27 | 50.40110 | 4.22193 | 4890 ft | 211 kts | 106° |
| 2026-04-27 18:27 | 50.39996 | 4.24438 | 4385 ft | 208 kts | 76° |
| 2026-04-27 18:27 | 50.40521 | 4.26544 | 3874 ft | 208 kts | 64° |
| 2026-04-27 18:27 | 50.41124 | 4.28586 | 3368 ft | 204 kts | 64° |
| 2026-04-27 18:28 | 50.41703 | 4.30568 | 2862 ft | 195 kts | 64° |
| 2026-04-27 18:28 | 50.42253 | 4.32452 | 2385 ft | 185 kts | 64° |
| 2026-04-27 18:28 | 50.42771 | 4.34241 | 1994 ft | 173 kts | 64° |
| 2026-04-27 18:28 | 50.43244 | 4.35878 | 1759 ft | 158 kts | 63° |
| 2026-04-27 18:29 | 50.43680 | 4.37382 | 1560 ft | 144 kts | 64° |
| 2026-04-27 18:29 | 50.44081 | 4.38767 | 1361 ft | 137 kts | 63° |
| 2026-04-27 18:29 | 50.44467 | 4.40090 | 1164 ft | 134 kts | 63° |
| 2026-04-27 18:29 | 50.44858 | 4.41418 | 1021 ft | 134 kts | 63° |
| 2026-04-27 18:30 | 50.45256 | 4.42759 | 836 ft | 137 kts | 64° |
| 2026-04-27 18:30 | 50.45644 | 4.44108 | 660 ft | 134 kts | 64° |
| 2026-04-27 18:30 | 50.46004 | 4.45347 | 616 ft | 105 kts | 67° |
| 2026-04-27 18:30 | 50.46236 | 4.46135 | 617 ft | 58 kts | 65° |
| 2026-04-27 18:31 | 50.46392 | 4.46680 | 616 ft | 39 kts | 65° |
| 2026-04-27 18:31 | 50.46471 | 4.46884 | 616 ft | 15 kts | 26° |
| 2026-04-27 18:31 | 50.46566 | 4.46851 | 618 ft | 14 kts | 334° |
| 2026-04-27 18:31 | 50.46590 | 4.46834 | 625 ft | 0 kts | 336° |
| 2026-04-27 18:32 | 50.46591 | 4.46833 | 625 ft | 1 kts | 333° |
| 2026-04-27 18:32 | 50.46599 | 4.46796 | 615 ft | 6 kts | 281° |
| 2026-04-27 18:32 | 50.46583 | 4.46700 | 613 ft | 11 kts | 250° |
| 2026-04-27 18:32 | 50.46563 | 4.46581 | 613 ft | 11 kts | 288° |
| 2026-04-27 18:33 | 50.46633 | 4.46557 | 613 ft | 12 kts | 34° |
| 2026-04-27 18:33 | 50.46673 | 4.46685 | 618 ft | 14 kts | 68° |
| 2026-04-27 18:33 | 50.46714 | 4.46835 | 624 ft | 16 kts | 65° |
| 2026-04-27 18:33 | 50.46752 | 4.46916 | 613 ft | 7 kts | 6° |
| 2026-04-27 18:34 | 50.46797 | 4.46882 | 616 ft | 3 kts | 334° |
| 2026-04-27 18:34 | 50.46807 | 4.46874 | 620 ft | 0 kts | 335° |
| 2026-04-27 18:34 | 50.46808 | 4.46873 | 620 ft | 0 kts | 335° |